createdAt,value
2018-12-27T00:01:16.128Z,31.17
2018-12-27T00:04:16.419Z,30.77
2018-12-27T00:07:16.760Z,29.05
2018-12-27T00:10:16.137Z,28.25
2018-12-27T00:13:03.156Z,30.37
2018-12-27T00:16:09.734Z,28.87
2018-12-27T00:19:09.127Z,27.93
2018-12-27T00:22:09.427Z,28.75
2018-12-27T00:25:09.592Z,28.80
2018-12-27T00:28:08.986Z,27.73
2018-12-27T00:31:08.468Z,23.30
2018-12-27T00:34:08.618Z,25.60
2018-12-27T00:37:09.083Z,26.73
2018-12-27T00:40:09.334Z,27.17
2018-12-27T00:43:09.866Z,27.48
2018-12-27T00:46:12.985Z,26.42
2018-12-27T00:49:13.296Z,24.95
2018-12-27T00:52:11.137Z,25.92
2018-12-27T00:55:20.719Z,26.62
2018-12-27T00:58:20.282Z,24.47
2018-12-27T01:01:20.379Z,24.35
2018-12-27T01:04:20.507Z,24.30
2018-12-27T01:07:20.625Z,25.00
2018-12-27T01:10:20.860Z,22.98
2018-12-27T01:13:21.158Z,25.88
2018-12-27T01:16:20.611Z,24.20
2018-12-27T01:19:20.000Z,22.70
2018-12-27T01:22:19.497Z,21.75
2018-12-27T01:25:19.726Z,24.07
2018-12-27T01:28:20.152Z,22.60
2018-12-27T01:31:20.411Z,22.35
2018-12-27T01:34:20.784Z,21.75
2018-12-27T01:37:21.043Z,24.23
2018-12-27T01:40:20.520Z,23.12
2018-12-27T01:43:20.666Z,21.95
2018-12-27T01:46:20.892Z,21.68
2018-12-27T01:49:21.314Z,22.35
2018-12-27T01:52:20.928Z,22.22
2018-12-27T01:55:21.056Z,20.68
2018-12-27T01:58:21.169Z,20.68
2018-12-27T02:01:21.395Z,22.62
2018-12-27T02:04:20.736Z,21.52
2018-12-27T02:07:20.574Z,24.18
2018-12-27T02:10:20.526Z,24.18
2018-12-27T02:13:19.942Z,21.00
2018-12-27T02:16:19.513Z,22.73
2018-12-27T02:19:19.695Z,21.60
2018-12-27T02:22:19.056Z,20.88
2018-12-27T02:25:18.799Z,21.82
2018-12-27T02:28:16.496Z,21.68
2018-12-27T02:31:26.612Z,21.73
2018-12-27T02:34:26.617Z,20.72
2018-12-27T02:37:26.146Z,22.48
2018-12-27T02:40:26.400Z,22.65
2018-12-27T02:43:25.856Z,22.55
2018-12-27T02:46:25.253Z,23.02
2018-12-27T02:49:25.639Z,23.60
2018-12-27T02:52:25.842Z,23.02
2018-12-27T02:55:25.338Z,22.82
2018-12-27T02:58:25.032Z,23.10
2018-12-27T03:01:24.401Z,21.27
2018-12-27T03:04:24.573Z,22.95
2018-12-27T03:07:23.987Z,20.92
2018-12-27T03:10:24.534Z,21.77
2018-12-27T03:13:24.695Z,22.67
2018-12-27T03:16:24.096Z,23.70
2018-12-27T03:19:24.451Z,23.95
2018-12-27T03:22:24.818Z,23.92
2018-12-27T03:25:24.161Z,24.90
2018-12-27T03:28:11.286Z,24.30
2018-12-27T03:30:58.630Z,26.70
2018-12-27T03:33:59.175Z,26.37
2018-12-27T03:36:59.424Z,25.27
2018-12-27T03:39:59.831Z,22.90
2018-12-27T03:43:00.043Z,24.85
2018-12-27T03:45:59.554Z,24.85
2018-12-27T03:48:59.066Z,20.32
2018-12-27T03:51:59.162Z,24.27
2018-12-27T03:54:59.340Z,25.70
2018-12-27T03:57:59.603Z,26.23
2018-12-27T04:01:00.035Z,24.65
2018-12-27T04:04:01.519Z,24.52
2018-12-27T04:06:48.789Z,25.55
2018-12-27T04:09:55.428Z,25.20
2018-12-27T04:12:55.660Z,25.17
2018-12-27T04:15:55.064Z,23.02
2018-12-27T04:18:54.385Z,24.12
2018-12-27T04:21:54.801Z,23.85
2018-12-27T04:24:55.104Z,26.68
2018-12-27T04:27:54.755Z,24.55
2018-12-27T04:30:54.968Z,24.18
2018-12-27T04:33:55.309Z,24.63
2018-12-27T04:36:55.514Z,21.35
2018-12-27T04:39:55.095Z,25.32
2018-12-27T04:42:55.345Z,24.00
2018-12-27T04:45:55.571Z,25.12
2018-12-27T04:48:56.116Z,24.47
2018-12-27T04:51:56.373Z,24.50
2018-12-27T04:54:56.306Z,26.45
2018-12-27T04:57:56.611Z,26.57
2018-12-27T05:00:56.108Z,24.82
2018-12-27T05:03:56.401Z,25.62
2018-12-27T05:06:56.761Z,24.15
2018-12-27T05:09:56.243Z,24.57
2018-12-27T05:12:56.507Z,25.68
2018-12-27T05:15:56.681Z,27.15
2018-12-27T05:18:57.020Z,24.82
2018-12-27T05:21:57.309Z,25.43
2018-12-27T05:24:56.802Z,25.45
2018-12-27T05:27:56.919Z,25.55
2018-12-27T05:30:56.519Z,25.40
2018-12-27T05:33:56.784Z,23.05
2018-12-27T05:36:56.204Z,24.02
2018-12-27T05:39:56.525Z,22.90
2018-12-27T05:42:56.568Z,22.70
2018-12-27T05:45:56.923Z,24.45
2018-12-27T05:48:56.273Z,22.27
2018-12-27T05:51:56.479Z,21.50
2018-12-27T05:55:00.344Z,23.67
2018-12-27T05:58:00.084Z,22.87
2018-12-27T06:00:59.732Z,21.82
2018-12-27T06:03:59.772Z,20.80
2018-12-27T06:07:03.037Z,23.10
2018-12-27T06:10:02.393Z,21.37
2018-12-27T06:13:02.404Z,21.23
2018-12-27T06:16:03.007Z,21.73
2018-12-27T06:19:03.089Z,21.27
2018-12-27T06:22:03.320Z,21.48
2018-12-27T06:25:02.973Z,20.70
2018-12-27T06:28:02.440Z,21.52
2018-12-27T06:31:02.729Z,21.82
2018-12-27T06:34:04.292Z,20.95
2018-12-27T06:37:04.250Z,20.50
2018-12-27T06:39:51.371Z,19.50
2018-12-27T06:42:57.911Z,19.98
2018-12-27T06:45:57.615Z,21.85
2018-12-27T06:48:57.948Z,19.87
2018-12-27T06:51:58.170Z,21.20
2018-12-27T06:54:58.382Z,21.82
2018-12-27T06:57:59.662Z,21.50
2018-12-27T07:00:46.688Z,21.12
2018-12-27T07:03:53.496Z,20.43
2018-12-27T07:06:53.508Z,21.07
2018-12-27T07:09:52.916Z,21.42
2018-12-27T07:12:52.585Z,21.20
2018-12-27T07:15:52.811Z,22.37
2018-12-27T07:18:53.138Z,21.90
2018-12-27T07:21:52.849Z,19.27
2018-12-27T07:24:52.199Z,21.65
2018-12-27T07:27:51.559Z,20.72
2018-12-27T07:30:51.780Z,22.02
2018-12-27T07:33:51.580Z,22.80
2018-12-27T07:36:52.106Z,23.65
2018-12-27T07:39:52.070Z,19.77
2018-12-27T07:42:52.321Z,23.65
2018-12-27T07:45:51.868Z,23.35
2018-12-27T07:48:52.173Z,25.45
2018-12-27T07:51:51.660Z,23.45
2018-12-27T07:54:52.175Z,24.85
2018-12-27T07:57:52.539Z,25.12
2018-12-27T08:00:53.204Z,26.23
2018-12-27T08:03:53.450Z,26.23
2018-12-27T08:06:53.681Z,27.22
2018-12-27T08:09:53.696Z,25.97
2018-12-27T08:12:53.283Z,26.97
2018-12-27T08:15:53.627Z,27.00
2018-12-27T08:18:53.120Z,25.72
2018-12-27T08:21:53.415Z,28.35
2018-12-27T08:24:52.931Z,26.45
2018-12-27T08:27:53.252Z,27.50
2018-12-27T08:30:40.243Z,27.07
2018-12-27T08:33:27.179Z,27.87
2018-12-27T08:36:14.194Z,29.07
2018-12-27T08:39:01.444Z,28.40
2018-12-27T08:42:03.964Z,29.85
2018-12-27T08:44:51.050Z,30.25
2018-12-27T08:47:58.099Z,29.20
2018-12-27T08:50:58.093Z,31.55
2018-12-27T08:53:58.768Z,29.65
2018-12-27T08:57:03.353Z,28.35
2018-12-27T09:00:07.342Z,28.62
2018-12-27T09:03:09.849Z,30.97
2018-12-27T09:06:10.209Z,30.08
2018-12-27T09:09:10.912Z,31.68
2018-12-27T09:12:11.038Z,29.55
2018-12-27T09:15:14.293Z,28.98
2018-12-27T09:18:14.832Z,29.65
2018-12-27T09:21:14.646Z,29.57
2018-12-27T09:24:14.925Z,30.60
2018-12-27T09:27:18.409Z,28.92
2018-12-27T09:30:19.013Z,28.55
2018-12-27T09:33:19.376Z,28.25
2018-12-27T09:36:19.670Z,29.02
2018-12-27T09:39:19.148Z,31.55
2018-12-27T09:42:19.533Z,27.75
2018-12-27T09:45:19.801Z,26.75
2018-12-27T09:48:20.708Z,30.92
2018-12-27T09:51:23.871Z,30.97
2018-12-27T09:54:24.203Z,30.23
2018-12-27T09:57:24.410Z,31.05
2018-12-27T10:00:24.261Z,30.80
2018-12-27T10:03:23.533Z,30.77
2018-12-27T10:06:23.156Z,32.70
2018-12-27T10:09:23.325Z,31.80
2018-12-27T10:12:23.637Z,32.67
2018-12-27T10:15:23.163Z,32.03
2018-12-27T10:18:22.615Z,29.18
2018-12-27T10:21:22.340Z,33.53
2018-12-27T10:24:22.493Z,31.30
2018-12-27T10:27:22.750Z,31.10
2018-12-27T10:30:22.862Z,29.77
2018-12-27T10:33:25.288Z,31.40
2018-12-27T10:36:25.867Z,33.60
2018-12-27T10:39:25.936Z,31.82
2018-12-27T10:42:26.269Z,32.25
2018-12-27T10:45:26.769Z,35.03
2018-12-27T10:48:27.071Z,33.20
2018-12-27T10:51:27.478Z,35.33
2018-12-27T10:54:27.117Z,33.38
2018-12-27T10:57:27.909Z,35.52
2018-12-27T11:00:30.849Z,37.23
2018-12-27T11:03:30.897Z,36.20
2018-12-27T11:06:30.675Z,35.73
2018-12-27T11:09:31.082Z,37.53
2018-12-27T11:12:31.178Z,35.35
2018-12-27T11:15:31.840Z,37.00
2018-12-27T11:18:18.967Z,37.10
2018-12-27T11:21:25.558Z,37.03
2018-12-27T11:24:25.521Z,36.35
2018-12-27T11:27:25.195Z,36.03
2018-12-27T11:30:25.357Z,37.05
2018-12-27T11:33:24.972Z,36.93
2018-12-27T11:36:25.310Z,35.25
2018-12-27T11:39:25.488Z,34.90
2018-12-27T11:42:25.909Z,37.17
2018-12-27T11:45:26.126Z,36.85
2018-12-27T11:48:25.817Z,39.58
2018-12-27T11:51:25.776Z,41.30
2018-12-27T11:54:25.922Z,37.80
2018-12-27T11:57:26.135Z,37.10
2018-12-27T12:00:25.504Z,37.65
2018-12-27T12:03:23.287Z,37.98
2018-12-27T12:06:33.746Z,37.80
2018-12-27T12:09:34.112Z,41.08
2018-12-27T12:12:34.316Z,36.40
2018-12-27T12:15:34.100Z,36.17
2018-12-27T12:18:34.559Z,37.45
2018-12-27T12:21:34.531Z,39.90
2018-12-27T12:24:34.726Z,38.40
2018-12-27T12:27:34.195Z,37.60
2018-12-27T12:30:34.347Z,38.92
2018-12-27T12:33:34.699Z,38.25
2018-12-27T12:36:35.747Z,39.13
2018-12-27T12:39:35.220Z,38.35
2018-12-27T12:42:32.965Z,39.20
2018-12-27T12:45:50.625Z,37.15
2018-12-27T12:48:50.779Z,38.30
2018-12-27T12:51:50.860Z,37.17
2018-12-27T12:54:50.408Z,38.45
2018-12-27T13:00:53.141Z,34.83
2018-12-27T13:03:52.493Z,39.10
2018-12-27T13:06:39.623Z,34.95
2018-12-27T13:09:46.665Z,36.98
2018-12-27T13:12:46.601Z,36.05
2018-12-27T13:15:47.028Z,33.90
2018-12-27T13:18:47.550Z,34.08
2018-12-27T13:21:47.783Z,32.93
2018-12-27T13:24:47.952Z,33.15
2018-12-27T13:27:47.344Z,31.77
2018-12-27T13:30:46.893Z,34.95
2018-12-27T13:33:47.251Z,32.10
2018-12-27T13:36:47.471Z,33.53
2018-12-27T13:39:46.975Z,33.38
2018-12-27T13:42:47.303Z,32.55
2018-12-27T13:45:49.760Z,33.23
2018-12-27T13:48:53.439Z,33.05
2018-12-27T13:51:41.260Z,31.52
2018-12-27T13:54:47.923Z,31.37
2018-12-27T13:57:34.937Z,34.25
2018-12-27T14:00:41.712Z,33.90
2018-12-27T14:03:41.872Z,32.88
2018-12-27T14:06:42.431Z,33.10
2018-12-27T14:09:42.490Z,31.70
2018-12-27T14:12:46.915Z,32.67
2018-12-27T14:15:50.365Z,30.60
2018-12-27T14:18:49.812Z,33.05
2018-12-27T14:21:49.256Z,29.75
2018-12-27T14:24:57.873Z,31.97
2018-12-27T14:27:54.005Z,30.95
2018-12-27T14:30:53.435Z,30.90
2018-12-27T14:33:54.391Z,31.05
2018-12-27T14:36:54.748Z,31.33
2018-12-27T14:39:57.512Z,29.90
2018-12-27T14:42:58.180Z,31.20
2018-12-27T14:48:48.625Z,31.20
2018-12-27T14:51:55.253Z,30.65
2018-12-27T14:54:55.424Z,30.85
2018-12-27T14:57:55.372Z,27.95
2018-12-27T15:00:55.534Z,29.50
2018-12-27T15:03:55.982Z,30.95
2018-12-27T15:06:56.583Z,29.23
2018-12-27T15:09:42.224Z,32.45
2018-12-27T15:12:27.779Z,32.42
2018-12-27T15:15:13.663Z,31.00
2018-12-27T15:17:58.854Z,27.80
2018-12-27T15:20:44.217Z,31.90
2018-12-27T15:23:29.976Z,32.05
2018-12-27T15:26:15.776Z,31.23
2018-12-27T15:29:02.277Z,30.75
2018-12-27T15:31:48.076Z,27.95
2018-12-27T15:34:34.034Z,33.38
2018-12-27T15:37:19.398Z,32.83
2018-12-27T15:40:05.739Z,30.85
2018-12-27T15:42:51.854Z,31.45
2018-12-27T15:45:37.532Z,31.35
2018-12-27T15:48:23.104Z,33.02
2018-12-27T15:51:08.599Z,33.20
2018-12-27T15:53:54.527Z,34.98
2018-12-27T15:56:40.368Z,35.23
2018-12-27T15:59:25.895Z,33.67
2018-12-27T16:02:11.751Z,29.90
2018-12-27T16:04:57.296Z,33.60
2018-12-27T16:07:42.539Z,33.65
2018-12-27T16:10:28.050Z,31.48
2018-12-27T16:13:13.782Z,33.73
2018-12-27T16:15:59.407Z,35.10
2018-12-27T16:18:44.972Z,36.17
2018-12-27T16:21:31.062Z,33.85
2018-12-27T16:24:16.605Z,33.55
2018-12-27T16:27:02.667Z,34.95
2018-12-27T16:29:48.472Z,35.95
2018-12-27T16:32:34.012Z,34.58
2018-12-27T16:35:19.508Z,35.25
2018-12-27T16:38:04.781Z,35.85
2018-12-27T16:40:50.580Z,34.90
2018-12-27T16:43:35.929Z,35.55
2018-12-27T16:46:21.701Z,37.45
2018-12-27T16:49:07.806Z,37.53
2018-12-27T16:51:53.599Z,35.73
2018-12-27T16:54:39.303Z,35.92
2018-12-27T16:57:25.203Z,36.00
2018-12-27T17:00:11.042Z,35.40
2018-12-27T17:02:56.846Z,36.33
2018-12-27T17:05:42.430Z,36.68
2018-12-27T17:08:27.616Z,34.40
2018-12-27T17:11:13.246Z,35.03
2018-12-27T17:13:59.073Z,34.18
2018-12-27T17:16:44.963Z,34.70
2018-12-27T17:19:32.629Z,35.83
2018-12-27T17:22:18.174Z,32.38
2018-12-27T17:25:03.926Z,36.70
2018-12-27T17:27:49.338Z,34.55
2018-12-27T17:30:35.557Z,36.58
2018-12-27T17:33:20.968Z,38.15
2018-12-27T17:36:06.959Z,35.48
2018-12-27T17:38:52.407Z,33.65
2018-12-27T17:41:37.988Z,37.38
2018-12-27T17:44:23.723Z,34.40
2018-12-27T17:47:09.343Z,35.25
2018-12-27T17:49:55.083Z,33.42
2018-12-27T17:52:40.194Z,36.48
2018-12-27T17:55:25.797Z,36.17
2018-12-27T17:58:11.289Z,35.88
2018-12-27T18:00:56.995Z,37.03
2018-12-27T18:03:42.414Z,35.25
2018-12-27T18:06:28.345Z,38.38
2018-12-27T18:09:14.144Z,37.10
2018-12-27T18:12:00.022Z,36.55
2018-12-27T18:14:52.943Z,34.10
2018-12-27T18:17:38.852Z,35.17
2018-12-27T18:20:24.621Z,35.78
2018-12-27T18:23:10.371Z,35.98
2018-12-27T18:25:55.850Z,34.78
2018-12-27T18:28:41.378Z,36.45
2018-12-27T18:31:26.729Z,36.63
2018-12-27T18:34:12.249Z,35.05
2018-12-27T18:36:58.170Z,32.93
2018-12-27T18:39:44.026Z,35.65
2018-12-27T18:42:29.743Z,37.90
2018-12-27T18:45:15.322Z,34.73
2018-12-27T18:48:02.500Z,35.65
2018-12-27T18:50:48.466Z,34.67
2018-12-27T18:53:36.311Z,33.65
2018-12-27T18:56:21.807Z,34.05
2018-12-27T18:59:07.527Z,34.58
2018-12-27T19:01:53.318Z,36.03
2018-12-27T19:04:39.505Z,34.48
2018-12-27T19:07:25.093Z,36.05
2018-12-27T19:10:10.538Z,36.63
2018-12-27T19:13:10.047Z,34.48
2018-12-27T19:15:58.420Z,34.55
2018-12-27T19:18:46.976Z,34.55
2018-12-27T19:22:11.250Z,36.83
2018-12-27T19:24:57.235Z,33.42
2018-12-27T19:27:43.005Z,36.00
2018-12-27T19:30:29.213Z,44.80
2018-12-27T19:33:15.031Z,37.48
2018-12-27T19:36:00.961Z,40.50
2018-12-27T19:38:46.780Z,37.08
2018-12-27T19:41:32.493Z,37.60
2018-12-27T19:44:18.831Z,37.95
2018-12-27T19:47:04.556Z,37.70
2018-12-27T19:49:53.477Z,38.55
2018-12-27T19:52:39.230Z,38.15
2018-12-27T19:55:24.758Z,39.25
2018-12-27T19:58:10.851Z,40.17
2018-12-27T20:00:56.445Z,40.83
2018-12-27T20:03:42.737Z,39.10
2018-12-27T20:06:28.709Z,39.23
2018-12-27T20:09:14.953Z,38.78
2018-12-27T20:12:01.129Z,38.92
2018-12-27T20:14:47.157Z,37.65
2018-12-27T20:17:32.678Z,40.15
2018-12-27T20:20:18.294Z,40.55
2018-12-27T20:23:05.623Z,40.65
2018-12-27T20:25:51.834Z,38.33
2018-12-27T20:28:37.422Z,39.67
2018-12-27T20:31:23.106Z,37.45
2018-12-27T20:34:08.957Z,41.48
2018-12-27T20:36:54.438Z,39.98
2018-12-27T20:39:40.843Z,40.25
2018-12-27T20:42:26.566Z,41.30
2018-12-27T20:45:12.757Z,41.10
2018-12-27T20:47:58.208Z,40.73
2018-12-27T20:50:43.861Z,42.13
2018-12-27T20:53:29.648Z,40.23
2018-12-27T20:56:15.844Z,40.28
2018-12-27T20:59:01.664Z,38.55
2018-12-27T21:01:47.394Z,41.18
2018-12-27T21:04:33.410Z,39.67
2018-12-27T21:07:19.197Z,39.38
2018-12-27T21:10:05.098Z,41.75
2018-12-27T21:12:50.596Z,40.20
2018-12-27T21:15:36.532Z,38.98
2018-12-27T21:18:22.308Z,42.55
2018-12-27T21:21:08.014Z,39.88
2018-12-27T21:23:54.021Z,41.08
2018-12-27T21:26:39.923Z,39.63
2018-12-27T21:29:25.207Z,41.10
2018-12-27T21:32:10.906Z,39.40
2018-12-27T21:34:56.598Z,38.28
2018-12-27T21:37:42.728Z,40.90
2018-12-27T21:40:28.403Z,43.65
2018-12-27T21:43:13.861Z,40.95
2018-12-27T21:45:59.506Z,39.27
2018-12-27T21:48:44.977Z,37.55
2018-12-27T21:51:31.036Z,39.90
2018-12-27T21:54:17.413Z,37.95
2018-12-27T21:57:03.611Z,40.65
2018-12-27T21:59:49.037Z,38.40
2018-12-27T22:02:34.606Z,37.13
2018-12-27T22:05:20.681Z,39.20
2018-12-27T22:08:06.227Z,39.98
2018-12-27T22:10:51.777Z,37.42
2018-12-27T22:13:37.679Z,37.48
2018-12-27T22:16:23.299Z,38.30
2018-12-27T22:19:08.861Z,38.63
2018-12-27T22:21:54.424Z,38.08
2018-12-27T22:24:40.376Z,38.65
2018-12-27T22:27:26.212Z,36.63
2018-12-27T22:30:11.852Z,38.08
2018-12-27T22:32:57.156Z,38.45
2018-12-27T22:35:43.055Z,37.90
2018-12-27T22:38:28.204Z,37.75
2018-12-27T22:41:13.730Z,36.88
2018-12-27T22:43:58.876Z,37.42
2018-12-27T22:46:44.377Z,36.17
2018-12-27T22:49:29.843Z,38.73
2018-12-27T22:52:15.319Z,38.67
2018-12-27T22:55:01.412Z,40.03
2018-12-27T22:57:47.434Z,37.08
2018-12-27T23:00:38.318Z,37.38
2018-12-27T23:03:24.058Z,39.75
2018-12-27T23:06:09.779Z,38.35
2018-12-27T23:08:55.113Z,40.10
2018-12-27T23:11:41.531Z,40.12
2018-12-27T23:14:27.544Z,40.25
2018-12-27T23:17:13.151Z,43.80
2018-12-27T23:19:59.222Z,41.50
2018-12-27T23:22:45.137Z,40.52
2018-12-27T23:25:30.614Z,39.48
2018-12-27T23:28:16.343Z,39.73
2018-12-27T23:31:02.028Z,42.08
2018-12-27T23:33:48.782Z,42.50
2018-12-27T23:36:34.454Z,42.10
2018-12-27T23:39:20.159Z,41.40
2018-12-27T23:42:06.058Z,40.85
2018-12-27T23:44:51.578Z,44.18
2018-12-27T23:47:36.909Z,41.25
2018-12-27T23:50:22.604Z,40.58
2018-12-27T23:53:08.156Z,40.48
2018-12-27T23:55:53.586Z,41.35
2018-12-27T23:58:39.546Z,41.75
